createdAt,value
2024-02-18T10:54:46.044Z,16.95
2024-02-18T10:57:13.669Z,19.92
2024-02-18T11:00:06.092Z,13.55
2024-02-18T11:02:40.448Z,14.98
2024-02-18T11:05:08.746Z,16.35
2024-02-18T11:07:37.571Z,13.55
2024-02-18T11:10:05.763Z,16.25
2024-02-18T11:12:34.384Z,16.05
2024-02-18T11:15:05.123Z,14.38
2024-02-18T11:17:32.257Z,15.07
2024-02-18T11:20:00.360Z,16.08
2024-02-18T11:22:29.080Z,11.25
2024-02-18T11:24:56.916Z,15.43
2024-02-18T11:29:52.513Z,12.38
2024-02-18T11:32:19.722Z,15.23
2024-02-18T11:34:50.168Z,11.43
2024-02-18T11:37:34.880Z,13.57
2024-02-18T11:40:13.483Z,12.25
2024-02-18T11:42:42.458Z,9.77
2024-02-18T11:45:15.050Z,11.90
2024-02-18T11:47:54.097Z,7.93
2024-02-18T11:50:23.473Z,10.38
2024-02-18T11:52:51.677Z,8.27
2024-02-18T11:55:19.708Z,7.88
2024-02-18T11:57:48.219Z,6.88
2024-02-18T12:00:20.278Z,3.90
2024-02-18T12:02:52.524Z,6.85
2024-02-18T12:05:22.457Z,8.02
2024-02-18T12:07:51.487Z,16.30
2024-02-18T12:10:19.351Z,15.15
2024-02-18T12:15:25.193Z,11.68
2024-02-18T12:17:55.159Z,7.85
2024-02-18T12:20:25.954Z,8.20
2024-02-18T12:22:53.061Z,8.60
2024-02-18T12:25:22.506Z,6.28
2024-02-18T12:27:51.264Z,6.90
2024-02-18T12:30:23.525Z,8.85
2024-02-18T12:32:51.754Z,5.40
2024-02-18T12:35:20.763Z,6.68
2024-02-18T12:37:48.446Z,5.05
2024-02-18T12:40:16.241Z,7.07
2024-02-18T12:45:42.983Z,5.68
2024-02-18T12:48:15.652Z,5.28
2024-02-18T12:50:44.218Z,4.97
2024-02-18T12:55:39.402Z,9.02
2024-02-18T12:58:07.413Z,6.22
2024-02-18T13:00:35.234Z,5.10
2024-02-18T13:03:08.949Z,7.85
2024-02-18T13:05:36.230Z,4.00
2024-02-18T13:08:05.903Z,4.85
2024-02-18T13:10:33.622Z,5.68
2024-02-18T13:15:28.972Z,8.77
2024-02-18T13:17:56.501Z,5.68
2024-02-18T13:20:23.843Z,7.72
2024-02-18T13:22:51.442Z,7.15
2024-02-18T13:25:19.012Z,4.65
2024-02-18T13:27:46.602Z,5.97
2024-02-18T13:30:14.925Z,6.32
2024-02-18T13:32:42.929Z,7.00
2024-02-18T13:35:10.146Z,10.35
2024-02-18T13:37:37.320Z,5.13
2024-02-18T13:40:07.434Z,8.50
2024-02-18T13:42:34.968Z,8.43
2024-02-18T13:45:02.220Z,8.35
2024-02-18T13:47:29.408Z,6.57
2024-02-18T13:49:59.135Z,9.18
2024-02-18T13:52:27.299Z,6.00
2024-02-18T13:54:54.688Z,5.82
2024-02-18T13:57:21.898Z,9.18
2024-02-18T13:59:49.092Z,6.03
2024-02-18T14:02:16.182Z,7.35
2024-02-18T14:04:43.380Z,6.07
2024-02-18T14:07:10.976Z,5.90
2024-02-18T14:09:38.113Z,7.47
2024-02-18T14:12:07.636Z,6.15
2024-02-18T14:14:38.448Z,8.82
2024-02-18T14:17:07.622Z,6.57
2024-02-18T14:19:36.240Z,12.00
2024-02-18T14:22:03.667Z,6.28
2024-02-18T14:26:59.447Z,7.35
2024-02-18T14:29:26.538Z,8.25
2024-02-18T14:31:53.634Z,7.80
2024-02-18T14:34:20.979Z,7.85
2024-02-18T14:36:48.499Z,6.45
2024-02-18T14:39:15.586Z,8.18
2024-02-18T14:41:43.109Z,7.20
2024-02-18T14:44:10.215Z,7.20
2024-02-18T14:46:37.304Z,6.78
2024-02-18T14:49:04.559Z,8.20
2024-02-18T14:51:32.819Z,13.93
2024-02-18T14:54:00.080Z,11.55
2024-02-18T14:56:27.172Z,9.80
2024-02-18T14:58:54.329Z,8.98
2024-02-18T15:01:21.689Z,6.22
2024-02-18T15:03:48.854Z,9.48
2024-02-18T15:06:16.879Z,12.70
2024-02-18T15:08:44.155Z,8.70
2024-02-18T15:11:11.287Z,9.75
2024-02-18T15:13:38.470Z,8.73
2024-02-18T15:16:06.084Z,8.68
2024-02-18T15:18:34.174Z,7.93
2024-02-18T15:21:01.539Z,7.88
2024-02-18T15:23:28.617Z,10.77
2024-02-18T15:25:55.827Z,10.35
2024-02-18T15:28:22.968Z,8.80
2024-02-18T15:30:50.273Z,8.75
2024-02-18T15:33:17.545Z,9.05
2024-02-18T15:35:48.848Z,9.52
2024-02-18T15:38:16.031Z,10.68
2024-02-18T15:40:43.224Z,9.27
2024-02-18T15:43:10.877Z,11.18
2024-02-18T15:45:38.126Z,8.75
2024-02-18T15:48:06.142Z,8.75
2024-02-18T15:50:33.467Z,12.80
2024-02-18T15:53:03.779Z,12.07
2024-02-18T15:55:42.332Z,9.73
2024-02-18T15:58:16.739Z,10.13
2024-02-18T16:00:44.008Z,8.30
2024-02-18T16:03:11.292Z,7.43
2024-02-18T16:05:38.382Z,17.88
2024-02-18T16:08:06.925Z,11.07
2024-02-18T16:10:33.983Z,9.10
2024-02-18T16:13:01.442Z,10.85
2024-02-18T16:15:29.177Z,11.27
2024-02-18T16:17:56.817Z,10.73
2024-02-18T16:20:24.143Z,10.65
2024-02-18T16:22:51.428Z,7.63
2024-02-18T16:27:46.190Z,6.85
2024-02-18T16:30:16.837Z,9.68
2024-02-18T16:32:44.014Z,7.55
2024-02-18T16:35:11.243Z,8.27
2024-02-18T16:37:38.423Z,8.98
2024-02-18T16:40:06.242Z,6.28
2024-02-18T16:42:33.666Z,4.93
2024-02-18T16:45:00.930Z,8.70
2024-02-18T16:47:28.105Z,6.68
2024-02-18T16:49:55.391Z,6.57
2024-02-18T16:52:22.672Z,11.32
2024-02-18T16:54:49.889Z,8.40
2024-02-18T16:57:16.971Z,12.18
2024-02-18T16:59:44.353Z,19.88
2024-02-18T17:02:11.735Z,19.48
2024-02-18T17:04:39.063Z,21.08
2024-02-18T17:07:06.432Z,18.10
2024-02-18T17:09:33.567Z,25.98
2024-02-18T17:12:00.736Z,20.48
2024-02-18T17:14:28.928Z,23.25
2024-02-18T17:16:56.218Z,23.60
2024-02-18T17:19:27.652Z,25.52
2024-02-18T17:21:58.082Z,24.23
2024-02-18T17:26:59.365Z,25.80
2024-02-18T17:29:26.536Z,22.10
2024-02-18T17:31:55.838Z,27.35
2024-02-18T17:34:26.120Z,26.50
2024-02-18T17:36:53.889Z,34.38
2024-02-18T17:41:49.826Z,29.40
2024-02-18T17:44:17.005Z,31.35
2024-02-18T17:46:44.445Z,31.60
2024-02-18T17:49:12.800Z,25.80
2024-02-18T17:51:41.178Z,28.60
2024-02-18T17:54:08.311Z,30.15
2024-02-18T17:56:36.544Z,28.10
2024-02-18T17:59:08.287Z,27.45
2024-02-18T18:01:35.766Z,26.67
2024-02-18T18:04:03.141Z,31.60
2024-02-18T18:06:31.038Z,27.55
2024-02-18T18:11:25.123Z,34.05
2024-02-18T18:13:52.204Z,29.42
2024-02-18T18:16:19.868Z,36.50
2024-02-18T18:18:46.998Z,35.13
2024-02-18T18:21:14.708Z,29.98
2024-02-18T18:26:09.866Z,29.98
2024-02-18T18:28:37.073Z,28.27
2024-02-18T18:31:05.195Z,30.83
2024-02-18T18:33:32.476Z,30.05
2024-02-18T18:36:00.835Z,29.80
2024-02-18T18:38:29.419Z,30.13
2024-02-18T18:40:56.909Z,29.95
2024-02-18T18:43:24.035Z,31.88
2024-02-18T18:45:51.168Z,29.20
2024-02-18T18:48:18.977Z,33.72
2024-02-18T18:53:14.464Z,26.55
2024-02-18T18:55:41.845Z,29.73
2024-02-18T18:58:09.424Z,27.85
2024-02-18T19:00:36.729Z,26.90
2024-02-18T19:03:04.092Z,28.90
2024-02-18T19:05:31.692Z,23.52
2024-02-18T19:07:58.916Z,26.00
2024-02-18T19:10:26.131Z,24.42
2024-02-18T19:12:53.287Z,37.38
2024-02-18T19:15:21.619Z,27.60
2024-02-18T19:17:49.269Z,29.75
2024-02-18T19:20:16.592Z,25.48
2024-02-18T19:22:43.702Z,30.52
2024-02-18T19:25:11.056Z,25.85
2024-02-18T19:27:38.329Z,28.85
2024-02-18T19:30:10.006Z,24.90
2024-02-18T19:32:37.137Z,30.30
2024-02-18T19:35:04.710Z,29.77
2024-02-18T19:37:32.940Z,22.95
2024-02-18T19:40:01.078Z,27.27
2024-02-18T19:42:31.638Z,33.08
2024-02-18T19:44:59.712Z,25.10
2024-02-18T19:47:28.112Z,26.60
2024-02-18T19:49:55.531Z,27.10
2024-02-18T19:52:22.844Z,25.27
2024-02-18T19:54:49.965Z,28.23
2024-02-18T19:57:17.180Z,27.83
2024-02-18T19:59:47.174Z,24.65
2024-02-18T20:02:14.681Z,26.30
2024-02-18T20:04:42.458Z,26.02
2024-02-18T20:07:09.617Z,23.90
2024-02-18T20:09:37.851Z,26.55
2024-02-18T20:12:05.310Z,27.30
2024-02-18T20:14:32.388Z,23.63
2024-02-18T20:16:59.540Z,21.83
2024-02-18T20:19:26.740Z,23.75
2024-02-18T20:21:55.068Z,24.80
2024-02-18T20:24:22.714Z,21.95
2024-02-18T20:26:49.861Z,21.63
2024-02-18T20:29:16.996Z,22.70
2024-02-18T20:31:44.101Z,22.90
2024-02-18T20:34:11.281Z,20.70
2024-02-18T20:36:40.099Z,23.05
2024-02-18T20:39:09.477Z,24.35
2024-02-18T20:41:36.775Z,21.63
2024-02-18T20:44:04.051Z,22.60
2024-02-18T20:46:31.157Z,19.70
2024-02-18T20:48:58.466Z,23.42
2024-02-18T20:51:25.655Z,24.30
2024-02-18T20:53:53.134Z,22.83
2024-02-18T20:56:20.296Z,19.83
2024-02-18T20:58:47.590Z,21.20
2024-02-18T21:01:14.943Z,19.58
2024-02-18T21:03:42.608Z,17.58
2024-02-18T21:06:09.831Z,22.38
2024-02-18T21:08:37.631Z,20.58
2024-02-18T21:13:34.705Z,20.50
2024-02-18T21:16:01.876Z,17.95
2024-02-18T21:18:29.106Z,13.73
2024-02-18T21:20:56.304Z,19.02
2024-02-18T21:23:23.615Z,22.05
2024-02-18T21:25:51.061Z,19.40
2024-02-18T21:28:20.252Z,22.23
2024-02-18T21:30:47.566Z,16.42
2024-02-18T21:33:18.194Z,16.23
2024-02-18T21:35:45.504Z,17.25
2024-02-18T21:38:12.616Z,15.00
2024-02-18T21:40:40.353Z,15.80
2024-02-18T21:45:35.286Z,19.05
2024-02-18T21:48:02.566Z,11.07
2024-02-18T21:50:29.736Z,14.60
2024-02-18T21:52:56.824Z,13.07
2024-02-18T21:55:23.990Z,14.73
2024-02-18T21:57:51.186Z,15.75
2024-02-18T22:00:18.381Z,16.15
2024-02-18T22:02:45.445Z,13.60
2024-02-18T22:05:13.553Z,13.80
2024-02-18T22:07:40.893Z,13.98
2024-02-18T22:10:08.569Z,15.43
2024-02-18T22:12:35.705Z,15.57
2024-02-18T22:15:04.067Z,13.32
2024-02-18T22:17:31.240Z,17.63
2024-02-18T22:19:58.538Z,17.33
2024-02-18T22:22:25.807Z,13.90
2024-02-18T22:24:52.975Z,11.65
2024-02-18T22:27:20.038Z,12.45
2024-02-18T22:29:47.444Z,8.85
2024-02-18T22:32:14.689Z,10.57
2024-02-18T22:34:42.451Z,12.55
2024-02-18T22:37:15.101Z,11.20
2024-02-18T22:39:44.050Z,12.45
2024-02-18T22:42:11.362Z,10.45
2024-02-18T22:44:39.032Z,15.75
2024-02-18T22:47:06.305Z,10.13
2024-02-18T22:49:33.503Z,12.27
2024-02-18T22:52:00.795Z,8.63
2024-02-18T22:54:27.942Z,8.85
2024-02-18T22:56:55.640Z,7.93
2024-02-18T22:59:22.751Z,8.02
2024-02-18T23:01:53.634Z,11.95
2024-02-18T23:04:20.876Z,11.48
2024-02-18T23:06:48.048Z,11.77
2024-02-18T23:09:15.204Z,10.25
2024-02-18T23:11:42.862Z,10.60
2024-02-18T23:14:09.988Z,10.45
2024-02-18T23:16:37.129Z,12.98
2024-02-18T23:19:04.254Z,10.85
2024-02-18T23:21:31.466Z,6.97
2024-02-18T23:23:58.502Z,8.18
2024-02-18T23:26:25.574Z,10.48
2024-02-18T23:28:52.870Z,7.30
2024-02-18T23:31:20.118Z,13.05
2024-02-18T23:33:47.677Z,5.90
2024-02-18T23:36:14.805Z,8.90
2024-02-18T23:38:42.574Z,10.75
2024-02-18T23:41:09.789Z,9.82
2024-02-18T23:43:41.453Z,13.05
2024-02-18T23:46:10.947Z,4.55
2024-02-18T23:48:38.444Z,6.20
2024-02-18T23:51:05.881Z,4.25
2024-02-18T23:53:32.981Z,3.88
2024-02-18T23:56:00.249Z,4.80
2024-02-18T23:58:27.420Z,4.95
